createdAt,value
2018-04-17T00:01:00.594Z,14.70
2018-04-17T00:03:26.587Z,14.70
2018-04-17T00:05:52.566Z,14.60
2018-04-17T00:08:18.551Z,14.60
2018-04-17T00:10:44.531Z,14.60
2018-04-17T00:13:10.503Z,14.60
2018-04-17T00:15:36.450Z,14.60
2018-04-17T00:18:02.966Z,14.50
2018-04-17T00:20:28.924Z,14.50
2018-04-17T00:22:54.866Z,14.40
2018-04-17T00:25:20.838Z,14.50
2018-04-17T00:27:46.786Z,14.40
2018-04-17T00:30:12.784Z,14.30
2018-04-17T00:32:38.743Z,14.20
2018-04-17T00:35:04.734Z,14.10
2018-04-17T00:37:30.706Z,14.10
2018-04-17T00:39:56.683Z,14.00
2018-04-17T00:42:22.670Z,13.90
2018-04-17T00:44:48.647Z,13.90
2018-04-17T00:47:14.599Z,13.80
2018-04-17T00:49:40.561Z,13.80
2018-04-17T00:52:06.519Z,13.70
2018-04-17T00:54:32.524Z,13.70
2018-04-17T00:56:58.499Z,13.70
2018-04-17T00:59:25.261Z,13.60
2018-04-17T01:01:51.198Z,13.60
2018-04-17T01:04:17.132Z,13.50
2018-04-17T01:06:43.115Z,13.50
2018-04-17T01:09:09.088Z,13.60
2018-04-17T01:11:35.074Z,13.50
2018-04-17T01:14:01.018Z,13.50
2018-04-17T01:16:27.006Z,13.50
2018-04-17T01:18:52.947Z,13.50
2018-04-17T01:21:18.917Z,13.40
2018-04-17T01:23:44.864Z,13.50
2018-04-17T01:26:11.589Z,13.40
2018-04-17T01:28:37.530Z,13.40
2018-04-17T01:31:04.238Z,13.30
2018-04-17T01:33:30.208Z,13.30
2018-04-17T01:35:56.211Z,13.20
2018-04-17T01:38:22.894Z,13.00
2018-04-17T01:40:48.826Z,13.00
2018-04-17T01:43:14.825Z,13.00
2018-04-17T01:45:40.846Z,12.90
2018-04-17T01:48:06.832Z,12.90
2018-04-17T01:50:33.522Z,12.90
2018-04-17T01:52:59.535Z,12.90
2018-04-17T01:55:25.507Z,12.80
2018-04-17T01:57:52.244Z,12.80
2018-04-17T02:00:18.193Z,12.80
2018-04-17T02:02:44.195Z,12.80
2018-04-17T02:05:10.219Z,12.80
2018-04-17T02:07:36.195Z,12.80
2018-04-17T02:10:02.184Z,12.80
2018-04-17T02:12:28.869Z,12.70
2018-04-17T02:14:54.843Z,12.60
2018-04-17T02:17:20.803Z,12.60
2018-04-17T02:19:46.792Z,12.60
2018-04-17T02:22:12.774Z,12.60
2018-04-17T02:24:38.732Z,12.60
2018-04-17T02:27:04.715Z,12.60
2018-04-17T02:29:30.688Z,12.70
2018-04-17T02:31:56.642Z,12.70
2018-04-17T02:34:22.647Z,12.70
2018-04-17T02:36:48.596Z,12.60
2018-04-17T02:39:14.595Z,12.60
2018-04-17T02:41:40.540Z,12.50
2018-04-17T02:44:06.561Z,12.50
2018-04-17T02:46:32.530Z,12.50
2018-04-17T02:48:59.235Z,12.50
2018-04-17T02:51:25.229Z,12.50
2018-04-17T02:53:51.208Z,12.50
2018-04-17T02:56:17.330Z,12.40
2018-04-17T02:58:43.345Z,12.50
2018-04-17T03:01:09.402Z,12.40
2018-04-17T03:03:35.404Z,12.30
2018-04-17T03:06:02.138Z,12.10
2018-04-17T03:08:28.823Z,12.10
2018-04-17T03:10:54.820Z,12.10
2018-04-17T03:13:20.771Z,12.10
2018-04-17T03:15:46.725Z,12.10
2018-04-17T03:18:12.694Z,12.20
2018-04-17T03:20:38.684Z,12.10
2018-04-17T03:23:04.631Z,12.10
2018-04-17T03:25:30.588Z,12.20
2018-04-17T03:27:56.547Z,12.00
2018-04-17T03:30:22.515Z,11.90
2018-04-17T03:32:48.493Z,11.80
2018-04-17T03:35:15.203Z,11.80
2018-04-17T03:37:41.188Z,11.70
2018-04-17T03:40:07.137Z,11.70
2018-04-17T03:42:33.118Z,11.70
2018-04-17T03:44:59.092Z,11.80
2018-04-17T03:47:25.074Z,11.80
2018-04-17T03:49:51.035Z,11.70
2018-04-17T03:52:17.028Z,11.80
2018-04-17T03:54:42.991Z,11.80
2018-04-17T03:57:08.939Z,11.80
2018-04-17T03:59:35.661Z,11.80
2018-04-17T04:02:01.626Z,11.80
2018-04-17T04:04:27.602Z,11.80
2018-04-17T04:06:53.587Z,11.70
2018-04-17T04:09:19.594Z,11.80
2018-04-17T04:11:45.543Z,11.80
2018-04-17T04:14:11.502Z,11.70
2018-04-17T04:16:37.496Z,11.70
2018-04-17T04:19:03.446Z,11.70
2018-04-17T04:21:30.186Z,11.70
2018-04-17T04:23:56.135Z,11.70
2018-04-17T04:26:22.170Z,11.60
2018-04-17T04:28:48.150Z,11.40
2018-04-17T04:31:14.131Z,11.40
2018-04-17T04:33:40.110Z,11.40
2018-04-17T04:36:06.062Z,11.40
2018-04-17T04:38:32.050Z,11.50
2018-04-17T04:40:58.006Z,11.40
2018-04-17T04:43:24.031Z,11.40
2018-04-17T04:45:50.034Z,11.40
2018-04-17T04:48:16.020Z,11.30
2018-04-17T04:50:41.984Z,11.20
2018-04-17T04:53:08.001Z,11.20
2018-04-17T04:55:34.698Z,11.00
2018-04-17T04:58:00.849Z,11.00
2018-04-17T05:00:26.801Z,11.10
2018-04-17T05:02:52.774Z,11.10
2018-04-17T05:05:18.759Z,10.90
2018-04-17T05:07:45.571Z,10.80
2018-04-17T05:10:12.845Z,11.00
2018-04-17T05:12:38.794Z,11.00
2018-04-17T05:15:05.743Z,11.10
2018-04-17T05:17:32.327Z,11.20
2018-04-17T05:20:01.121Z,11.30
2018-04-17T05:22:27.058Z,11.30
2018-04-17T05:24:53.044Z,11.30
2018-04-17T05:27:19.743Z,11.40
2018-04-17T05:29:45.755Z,11.40
2018-04-17T05:32:11.724Z,11.40
2018-04-17T05:34:37.670Z,11.40
2018-04-17T05:37:03.672Z,11.40
2018-04-17T05:39:29.622Z,11.50
2018-04-17T05:41:55.618Z,11.50
2018-04-17T05:44:21.571Z,11.60
2018-04-17T05:46:47.590Z,11.60
2018-04-17T05:49:13.534Z,11.70
2018-04-17T05:51:39.496Z,11.70
2018-04-17T05:54:05.441Z,11.80
2018-04-17T05:56:32.147Z,11.90
2018-04-17T05:58:58.106Z,11.90
2018-04-17T06:01:24.842Z,12.10
2018-04-17T06:03:51.598Z,12.20
2018-04-17T06:06:17.594Z,12.20
2018-04-17T06:08:43.557Z,12.20
2018-04-17T06:11:09.554Z,12.30
2018-04-17T06:13:36.271Z,12.40
2018-04-17T06:16:02.225Z,12.40
2018-04-17T06:18:28.206Z,12.40
2018-04-17T06:20:54.211Z,12.40
2018-04-17T06:23:20.197Z,12.40
2018-04-17T06:25:46.139Z,12.50
2018-04-17T06:28:12.114Z,12.60
2018-04-17T06:30:38.879Z,12.80
2018-04-17T06:33:04.819Z,12.80
2018-04-17T06:35:30.790Z,12.90
2018-04-17T06:37:56.799Z,13.00
2018-04-17T06:40:22.770Z,13.00
2018-04-17T06:42:48.725Z,13.20
2018-04-17T06:45:14.700Z,13.20
2018-04-17T06:47:40.685Z,13.30
2018-04-17T06:50:06.642Z,13.40
2018-04-17T06:52:33.354Z,13.50
2018-04-17T06:54:59.337Z,13.50
2018-04-17T06:57:25.275Z,13.60
2018-04-17T06:59:51.215Z,13.80
2018-04-17T07:02:17.202Z,13.80
2018-04-17T07:04:43.203Z,13.90
2018-04-17T07:07:09.161Z,13.90
2018-04-17T07:09:35.164Z,13.90
2018-04-17T07:12:01.134Z,14.00
2018-04-17T07:14:27.092Z,14.10
2018-04-17T07:16:53.833Z,14.40
2018-04-17T07:19:20.508Z,14.50
2018-04-17T07:21:46.487Z,14.50
2018-04-17T07:24:12.466Z,14.60
2018-04-17T07:26:38.477Z,14.70
2018-04-17T07:29:04.433Z,14.80
2018-04-17T07:31:30.394Z,14.70
2018-04-17T07:33:56.359Z,14.80
2018-04-17T07:36:22.335Z,14.80
2018-04-17T07:38:48.314Z,15.00
2018-04-17T07:41:14.258Z,15.00
2018-04-17T07:43:40.975Z,15.10
2018-04-17T07:46:06.911Z,15.10
2018-04-17T07:48:32.881Z,15.20
2018-04-17T07:50:58.845Z,15.30
2018-04-17T07:53:24.820Z,15.40
2018-04-17T07:55:50.795Z,15.50
2018-04-17T07:58:16.762Z,15.60
2018-04-17T08:00:42.749Z,15.70
2018-04-17T08:03:09.455Z,15.80
2018-04-17T08:05:35.418Z,15.80
2018-04-17T08:08:02.111Z,15.90
2018-04-17T08:10:28.123Z,15.80
2018-04-17T08:12:54.063Z,15.90
2018-04-17T08:15:20.044Z,15.90
2018-04-17T08:17:46.014Z,16.00
2018-04-17T08:20:12.024Z,16.00
2018-04-17T08:22:37.986Z,16.10
2018-04-17T08:25:04.691Z,16.10
2018-04-17T08:27:30.662Z,16.10
2018-04-17T08:29:56.651Z,16.20
2018-04-17T08:32:22.608Z,16.30
2018-04-17T08:34:48.608Z,16.40
2018-04-17T08:37:14.692Z,16.50
2018-04-17T08:39:40.647Z,16.60
2018-04-17T08:42:06.634Z,16.60
2018-04-17T08:44:32.594Z,16.80
2018-04-17T08:46:58.578Z,16.80
2018-04-17T08:49:24.535Z,17.00
2018-04-17T08:51:50.512Z,17.10
2018-04-17T08:54:16.462Z,17.20
2018-04-17T08:56:42.438Z,17.20
2018-04-17T08:59:08.394Z,17.30
2018-04-17T09:01:34.406Z,17.30
2018-04-17T09:04:00.350Z,17.40
2018-04-17T09:06:26.301Z,17.60
2018-04-17T09:08:53.003Z,17.90
2018-04-17T09:11:18.980Z,17.80
2018-04-17T09:13:44.975Z,18.00
2018-04-17T09:16:10.925Z,18.20
2018-04-17T09:18:36.891Z,18.40
2018-04-17T09:21:02.894Z,18.60
2018-04-17T09:23:28.873Z,18.90
2018-04-17T09:25:54.879Z,19.10
2018-04-17T09:28:21.651Z,19.60
2018-04-17T09:30:47.606Z,19.50
2018-04-17T09:33:13.568Z,19.70
2018-04-17T09:35:39.562Z,20.00
2018-04-17T09:38:05.510Z,20.30
2018-04-17T09:40:31.496Z,20.30
2018-04-17T09:42:58.202Z,20.40
2018-04-17T09:45:24.206Z,20.40
2018-04-17T09:47:50.966Z,20.70
2018-04-17T09:50:16.929Z,20.70
2018-04-17T09:52:42.911Z,20.80
2018-04-17T09:55:08.889Z,20.80
2018-04-17T09:57:34.868Z,20.70
2018-04-17T10:00:00.825Z,20.80
2018-04-17T10:02:26.798Z,20.90
2018-04-17T10:04:52.797Z,20.90
2018-04-17T10:07:18.775Z,20.90
2018-04-17T10:09:44.768Z,20.90
2018-04-17T10:12:10.749Z,20.90
2018-04-17T10:14:36.699Z,20.90
2018-04-17T10:17:02.727Z,20.90
2018-04-17T10:19:28.690Z,21.00
2018-04-17T10:21:54.660Z,21.00
2018-04-17T10:24:21.355Z,21.00
2018-04-17T10:26:47.346Z,21.00
2018-04-17T10:29:13.313Z,20.90
2018-04-17T10:31:39.314Z,20.90
2018-04-17T10:34:05.262Z,21.00
2018-04-17T10:36:31.220Z,21.00
2018-04-17T10:38:57.954Z,21.10
2018-04-17T10:41:24.671Z,21.20
2018-04-17T10:43:50.655Z,21.20
2018-04-17T10:46:16.607Z,21.40
2018-04-17T10:48:42.594Z,21.50
2018-04-17T10:51:08.568Z,21.40
2018-04-17T10:53:34.534Z,21.40
2018-04-17T10:56:00.495Z,21.60
2018-04-17T10:58:26.480Z,21.80
2018-04-17T11:00:52.462Z,21.80
2018-04-17T11:03:18.492Z,21.80
2018-04-17T11:05:44.467Z,21.90
2018-04-17T11:08:10.411Z,22.10
2018-04-17T11:10:36.415Z,22.40
2018-04-17T11:13:02.370Z,22.50
2018-04-17T11:15:28.362Z,22.60
2018-04-17T11:17:54.314Z,22.70
2018-04-17T11:20:20.667Z,22.80
2018-04-17T11:22:46.763Z,23.00
2018-04-17T11:25:12.740Z,23.10
2018-04-17T11:27:38.722Z,23.10
2018-04-17T11:30:04.717Z,23.20
2018-04-17T11:32:30.695Z,23.20
2018-04-17T11:34:56.668Z,23.30
2018-04-17T11:37:22.706Z,23.60
2018-04-17T11:39:48.714Z,23.80
2018-04-17T11:42:14.716Z,23.90
2018-04-17T11:44:40.703Z,24.00
2018-04-17T11:47:07.430Z,24.10
2018-04-17T11:49:34.128Z,24.00
2018-04-17T11:52:00.117Z,24.00
2018-04-17T11:54:26.087Z,24.20
2018-04-17T11:56:52.080Z,24.50
2018-04-17T11:59:18.033Z,24.70
2018-04-17T12:01:44.021Z,24.70
2018-04-17T12:04:09.995Z,24.70
2018-04-17T12:06:36.919Z,24.60
2018-04-17T12:09:02.919Z,24.90
2018-04-17T12:11:28.890Z,25.10
2018-04-17T12:13:54.903Z,25.30
2018-04-17T12:16:20.855Z,25.50
2018-04-17T12:18:46.837Z,25.50
2018-04-17T12:21:13.018Z,25.40
2018-04-17T12:23:38.995Z,25.40
2018-04-17T12:26:05.021Z,25.30
2018-04-17T12:28:31.022Z,25.20
2018-04-17T12:30:56.980Z,25.40
2018-04-17T12:33:23.667Z,25.00
2018-04-17T12:35:49.672Z,25.00
2018-04-17T12:38:15.633Z,24.80
2018-04-17T12:40:41.631Z,24.70
2018-04-17T12:43:07.580Z,24.80
2018-04-17T12:45:33.584Z,24.90
2018-04-17T12:47:59.558Z,24.70
2018-04-17T12:50:26.259Z,25.00
2018-04-17T12:52:52.214Z,25.00
2018-04-17T12:55:18.934Z,25.60
2018-04-17T12:57:44.888Z,25.50
2018-04-17T13:00:11.591Z,26.00
2018-04-17T13:02:37.538Z,26.00
2018-04-17T13:05:04.318Z,26.30
2018-04-17T13:07:30.297Z,26.30
2018-04-17T13:09:57.057Z,26.20
2018-04-17T13:12:23.061Z,26.20
2018-04-17T13:14:49.765Z,26.30
2018-04-17T13:17:15.795Z,26.20
2018-04-17T13:19:41.766Z,26.10
2018-04-17T13:22:07.718Z,25.90
2018-04-17T13:24:33.677Z,25.80
2018-04-17T13:26:59.646Z,25.90
2018-04-17T13:29:25.611Z,26.00
2018-04-17T13:31:51.608Z,26.00
2018-04-17T13:34:17.584Z,26.00
2018-04-17T13:36:44.323Z,26.00
2018-04-17T13:39:11.058Z,25.90
2018-04-17T13:41:37.763Z,25.90
2018-04-17T13:44:03.771Z,25.90
2018-04-17T13:46:29.731Z,25.90
2018-04-17T13:48:55.731Z,26.00
2018-04-17T13:51:21.686Z,26.20
2018-04-17T13:53:48.419Z,26.20
2018-04-17T13:56:14.358Z,26.20
2018-04-17T13:58:41.052Z,26.00
2018-04-17T14:01:07.044Z,26.00
2018-04-17T14:03:33.024Z,26.00
2018-04-17T14:05:59.753Z,26.00
2018-04-17T14:08:25.703Z,26.00
2018-04-17T14:10:52.439Z,26.40
2018-04-17T14:13:19.171Z,26.50
2018-04-17T14:15:45.123Z,26.50
2018-04-17T14:18:11.138Z,26.60
2018-04-17T14:20:37.120Z,26.70
2018-04-17T14:23:03.067Z,26.90
2018-04-17T14:25:29.831Z,27.30
2018-04-17T14:27:56.507Z,27.30
2018-04-17T14:30:22.504Z,27.30
2018-04-17T14:32:49.211Z,27.10
2018-04-17T14:35:15.923Z,27.30
2018-04-17T14:37:41.906Z,27.30
2018-04-17T14:40:07.900Z,27.50
2018-04-17T14:42:35.419Z,27.90
2018-04-17T14:45:01.578Z,27.90
2018-04-17T14:47:28.534Z,28.20
2018-04-17T14:49:55.229Z,27.90
2018-04-17T14:52:21.200Z,27.90
2018-04-17T14:54:47.933Z,27.70
2018-04-17T14:57:13.914Z,27.70
2018-04-17T14:59:39.878Z,27.70
2018-04-17T15:02:06.634Z,27.70
2018-04-17T15:04:32.626Z,27.70
2018-04-17T15:06:58.610Z,27.80
2018-04-17T15:09:24.599Z,27.70
2018-04-17T15:11:50.574Z,27.50
2018-04-17T15:14:16.540Z,27.50
2018-04-17T15:16:42.554Z,27.50
2018-04-17T15:19:09.266Z,27.10
2018-04-17T15:21:35.230Z,27.00
2018-04-17T15:24:01.269Z,27.30
2018-04-17T15:26:27.227Z,27.50
2018-04-17T15:28:53.208Z,27.30
2018-04-17T15:31:19.208Z,27.30
2018-04-17T15:33:45.186Z,27.40
2018-04-17T15:36:11.162Z,27.40
2018-04-17T15:38:37.178Z,27.10
2018-04-17T15:41:03.125Z,27.10
2018-04-17T15:43:29.088Z,27.00
2018-04-17T15:45:55.073Z,26.90
2018-04-17T15:48:21.027Z,26.90
2018-04-17T15:50:47.055Z,26.90
2018-04-17T15:53:13.026Z,27.10
2018-04-17T15:55:39.011Z,27.10
2018-04-17T15:58:05.021Z,27.30
2018-04-17T16:00:31.024Z,27.40
2018-04-17T16:02:57.022Z,27.50
2018-04-17T16:05:22.996Z,27.30
2018-04-17T16:07:49.003Z,27.40
2018-04-17T16:10:15.004Z,27.40
2018-04-17T16:12:40.970Z,27.40
2018-04-17T16:15:06.954Z,27.40
2018-04-17T16:17:32.921Z,27.30
2018-04-17T16:19:59.654Z,27.00
2018-04-17T16:22:25.624Z,27.00
2018-04-17T16:24:51.578Z,26.90
2018-04-17T16:27:17.544Z,27.00
2018-04-17T16:29:43.986Z,26.90
2018-04-17T16:32:09.999Z,26.90
2018-04-17T16:34:36.723Z,26.70
2018-04-17T16:37:03.417Z,26.60
2018-04-17T16:39:29.376Z,26.60
2018-04-17T16:41:55.359Z,26.80
2018-04-17T16:44:21.314Z,26.70
2018-04-17T16:46:47.311Z,26.70
2018-04-17T16:49:13.326Z,26.60
2018-04-17T16:51:39.309Z,26.50
2018-04-17T16:54:06.008Z,26.40
2018-04-17T16:56:31.973Z,26.30
2018-04-17T16:58:57.951Z,26.30
2018-04-17T17:01:23.929Z,26.40
2018-04-17T17:03:49.898Z,26.30
2018-04-17T17:06:15.865Z,26.20
2018-04-17T17:08:41.807Z,26.10
2018-04-17T17:11:20.847Z,26.00
2018-04-17T17:13:47.261Z,26.00
2018-04-17T17:30:15.609Z,25.70
2018-04-17T17:36:14.274Z,25.20
2018-04-17T17:38:40.393Z,25.10
2018-04-17T17:41:08.277Z,24.90
2018-04-17T17:43:34.440Z,24.70
2018-04-17T17:46:00.424Z,24.50
2018-04-17T17:48:26.398Z,24.30
2018-04-17T17:50:52.367Z,24.10
2018-04-17T17:53:18.322Z,23.90
2018-04-17T17:55:45.047Z,23.60
2018-04-17T17:58:11.019Z,23.60
2018-04-17T18:00:37.070Z,23.40
2018-04-17T18:03:03.036Z,23.20
2018-04-17T18:05:29.067Z,23.10
2018-04-17T18:07:55.066Z,22.90
2018-04-17T18:10:21.079Z,22.70
2018-04-17T18:12:47.069Z,22.60
2018-04-17T18:15:13.064Z,22.50
2018-04-17T18:17:39.037Z,22.40
2018-04-17T18:20:05.084Z,22.30
2018-04-17T18:22:31.114Z,22.10
2018-04-17T18:24:57.855Z,21.80
2018-04-17T18:27:23.876Z,21.80
2018-04-17T18:29:50.589Z,21.60
2018-04-17T18:32:16.555Z,21.60
2018-04-17T18:34:43.257Z,21.40
2018-04-17T18:37:09.986Z,21.20
2018-04-17T18:39:35.993Z,21.20
2018-04-17T18:42:01.972Z,21.10
2018-04-17T18:44:28.711Z,20.90
2018-04-17T18:46:54.715Z,20.90
2018-04-17T18:49:21.463Z,20.90
2018-04-17T18:51:48.174Z,20.90
2018-04-17T18:54:14.183Z,20.80
2018-04-17T18:56:40.145Z,20.80
2018-04-17T18:59:06.112Z,20.80
2018-04-17T19:01:32.097Z,20.70
2018-04-17T19:03:58.827Z,20.60
2018-04-17T19:06:24.784Z,20.50
2018-04-17T19:08:50.780Z,20.50
2018-04-17T19:11:17.505Z,20.40
2018-04-17T19:13:43.485Z,20.40
2018-04-17T19:16:09.533Z,20.30
2018-04-17T19:18:35.494Z,20.20
2018-04-17T19:21:01.500Z,20.20
2018-04-17T19:23:27.452Z,20.20
2018-04-17T19:25:53.432Z,20.10
2018-04-17T19:28:19.454Z,20.10
2018-04-17T19:30:45.439Z,20.00
2018-04-17T19:33:11.427Z,20.00
2018-04-17T19:35:37.428Z,20.00
2018-04-17T19:38:03.403Z,19.90
2018-04-17T19:40:30.094Z,19.90
2018-04-17T19:42:56.068Z,19.80
2018-04-17T19:45:22.081Z,19.80
2018-04-17T19:47:48.052Z,19.90
2018-04-17T19:50:14.058Z,19.90
2018-04-17T19:52:40.054Z,20.00
2018-04-17T19:55:06.039Z,20.10
2018-04-17T19:57:32.760Z,20.20
2018-04-17T19:59:58.732Z,20.10
2018-04-17T20:02:24.726Z,20.00
2018-04-17T20:04:51.434Z,19.70
2018-04-17T20:07:17.477Z,19.70
2018-04-17T20:09:43.468Z,19.70
2018-04-17T20:12:09.426Z,19.80
2018-04-17T20:14:35.395Z,19.90
2018-04-17T20:17:01.349Z,20.00
2018-04-17T20:19:27.352Z,20.00
2018-04-17T20:21:53.314Z,19.90
2018-04-17T20:24:19.281Z,20.00
2018-04-17T20:26:45.250Z,19.80
2018-04-17T20:29:11.263Z,19.80
2018-04-17T20:31:37.264Z,19.70
2018-04-17T20:34:03.247Z,19.80
2018-04-17T20:36:29.229Z,19.80
2018-04-17T20:38:55.223Z,19.70
2018-04-17T20:41:21.199Z,19.60
2018-04-17T20:43:47.944Z,19.40
2018-04-17T20:46:14.640Z,19.40
2018-04-17T20:48:40.659Z,19.40
2018-04-17T20:51:06.643Z,19.30
2018-04-17T20:53:32.648Z,19.20
2018-04-17T20:55:58.606Z,19.20
2018-04-17T20:58:24.585Z,19.00
2018-04-17T21:00:50.558Z,19.00
2018-04-17T21:03:16.530Z,18.90
2018-04-17T21:05:42.492Z,19.00
2018-04-17T21:08:08.476Z,18.90
2018-04-17T21:10:34.474Z,18.80
2018-04-17T21:13:00.449Z,18.80
2018-04-17T21:15:26.429Z,18.70
2018-04-17T21:17:52.407Z,18.70
2018-04-17T21:20:18.392Z,18.50
2018-04-17T21:22:44.367Z,18.50
2018-04-17T21:25:10.334Z,18.50
2018-04-17T21:27:36.318Z,18.40
2018-04-17T21:30:02.320Z,18.40
2018-04-17T21:32:28.279Z,18.30
2018-04-17T21:34:54.282Z,18.30
2018-04-17T21:37:20.240Z,18.30
2018-04-17T21:39:46.219Z,18.30
2018-04-17T21:42:12.203Z,18.20
2018-04-17T21:44:38.895Z,18.20
2018-04-17T21:47:04.908Z,18.20
2018-04-17T21:49:30.858Z,18.10
2018-04-17T21:51:56.815Z,18.10
2018-04-17T21:54:23.560Z,18.00
2018-04-17T21:56:49.539Z,18.00
2018-04-17T21:59:15.492Z,18.00
2018-04-17T22:01:41.462Z,17.90
2018-04-17T22:04:07.467Z,17.90
2018-04-17T22:06:33.456Z,17.90
2018-04-17T22:09:00.155Z,17.80
2018-04-17T22:11:26.146Z,17.80
2018-04-17T22:13:52.127Z,17.80
2018-04-17T22:16:18.103Z,17.80
2018-04-17T22:18:44.069Z,17.80
2018-04-17T22:21:10.076Z,17.70
2018-04-17T22:23:36.040Z,17.60
2018-04-17T22:26:02.749Z,17.60
2018-04-17T22:28:28.746Z,17.60
2018-04-17T22:30:54.718Z,17.50
2018-04-17T22:33:21.442Z,17.40
2018-04-17T22:35:47.384Z,17.40
2018-04-17T22:38:14.111Z,17.30
2018-04-17T22:40:40.839Z,17.10
2018-04-17T22:43:06.845Z,17.10
2018-04-17T22:45:32.814Z,17.20
2018-04-17T22:47:58.814Z,17.10
2018-04-17T22:50:24.787Z,17.20
2018-04-17T22:52:50.787Z,17.20
2018-04-17T22:55:16.755Z,17.20
2018-04-17T22:57:42.725Z,17.00
2018-04-17T23:00:09.451Z,17.00
2018-04-17T23:02:36.136Z,16.90
2018-04-17T23:05:02.163Z,17.00
2018-04-17T23:07:28.130Z,16.90
2018-04-17T23:09:54.132Z,16.90
2018-04-17T23:12:20.087Z,16.80
2018-04-17T23:14:46.807Z,16.70
2018-04-17T23:17:12.756Z,16.70
2018-04-17T23:19:38.719Z,16.70
2018-04-17T23:22:04.729Z,16.60
2018-04-17T23:24:30.723Z,16.60
2018-04-17T23:26:56.730Z,16.50
2018-04-17T23:29:23.443Z,16.20
2018-04-17T23:31:49.424Z,16.20
2018-04-17T23:34:15.431Z,16.20
2018-04-17T23:36:41.413Z,16.20
2018-04-17T23:39:07.400Z,16.20
2018-04-17T23:41:33.370Z,16.10
2018-04-17T23:43:59.347Z,16.10
2018-04-17T23:46:25.329Z,16.10
2018-04-17T23:48:51.275Z,16.10
2018-04-17T23:51:17.265Z,16.00
2018-04-17T23:53:44.002Z,16.00
2018-04-17T23:56:09.959Z,15.90
2018-04-17T23:58:35.934Z,15.90
